Llangoed, United Kingdom
Current Conditions -  °F | °C
As of 2:50 PM on Monday 22 Dec 2014 (Local Time) from EGOV Reporting Station
Haze Haze  
Wind Chill: 54°   Ceiling: 3000
Heat Index: 54°   Visibility: 4mi
Dew Point: 50°   Wind: 29mph
Humidity: 88%   Direction: 220°SW
Pressure: 29.85"   Gusts: NA
Location:  53.3°N, 4.09°W
Report Text: EGOV 221450Z AUTO 22025KT 7000 HZ OVC030/// 12/10 Q1011
Loading
Personal Weather Stations






























Interactive Weather Map New forecast layout! Learn more

10-Day Weather Forecast

Advertisements
Track Severe Weather on mobile